Terminal Aerodrome Forecast
Issued by NWS Wilmington, OH

Home | Current Version | Previous Version | Text Only | Print | Product List | Glossary On
Versions: 1 2 3 4 5 6 7 8 9 10 11 12 13 14 15 16 17 18 19 20 21 22 23 24 25 26 27 28 29 30 31
208
FTUS41 KILN 301139
TAFCMH
TAF
KCMH 301139Z 3012/0112 09009KT P6SM BKN008 OVC080
     FM301400 10009KT P6SM OVC050
     FM301800 11010G18KT 4SM -SHRA BR OVC025
     FM302200 15014G24KT 2SM -SHRA BR OVC012
     FM010400 19012G22KT 5SM BR VCSH OVC012=

USA.gov is the U.S. government's official web portal to all federal, state and local government web resources and services.